Time;durP1;ratioP1;P1;durP2;ratioP2;P2;SDS_P1;SDS_P2;PMS_P1;PMS_P2;Temp;Humidity;BMP_temperature;BMP_pressure;BME280_temperature;BME280_humidity;BME280_pressure;Samples;Min_cycle;Max_cycle;Signal;HPM_P1;HPM_P2
2021/03/27 00:01:34;;;;;;;14.77;9.45;;;;;;;9.35;77.45;101370.28;5039250;28;20022;-79
2021/03/27 00:04:54;;;;;;;15.90;11.05;;;;;;;9.47;77.65;101400.19;5039095;28;20029;-79
2021/03/27 00:07:29;;;;;;;11.75;9.00;;;;;;;9.38;77.60;101389.88;5027262;28;20033;-79
2021/03/27 00:10:15;;;;;;;12.00;10.70;;;;;;;9.35;77.84;101398.84;5038652;28;20034;-80
2021/03/27 00:12:53;;;;;;;14.43;9.90;;;;;;;9.41;78.36;101392.00;5038789;28;20036;-80
2021/03/27 00:15:22;;;;;;;18.38;9.80;;;;;;;9.25;78.04;101365.84;5038740;28;20034;-79
2021/03/27 00:17:56;;;;;;;13.68;11.52;;;;;;;9.36;78.40;101394.13;5038356;28;20036;-79
2021/03/27 00:20:29;;;;;;;18.33;13.60;;;;;;;9.36;79.02;101397.72;5036973;28;20049;-79
2021/03/27 00:23:13;;;;;;;15.73;11.85;;;;;;;9.38;78.65;101395.44;5037368;28;20040;-79
2021/03/27 00:25:46;;;;;;;18.13;12.77;;;;;;;9.36;78.12;101389.38;5037060;28;20029;-80
2021/03/27 00:28:20;;;;;;;20.42;14.30;;;;;;;9.37;77.66;101388.22;5037881;28;20080;-79
2021/03/27 00:30:56;;;;;;;17.33;13.95;;;;;;;9.38;77.74;101383.53;5037195;28;20041;-79
2021/03/27 00:33:27;;;;;;;15.00;13.02;;;;;;;9.35;77.84;101382.19;5037166;28;20530;-79
2021/03/27 00:35:58;;;;;;;16.02;12.05;;;;;;;9.21;77.78;101353.75;5036810;28;20100;-79
2021/03/27 00:38:35;;;;;;;14.32;11.73;;;;;;;9.35;77.23;101376.63;5039719;28;20030;-79
2021/03/27 00:41:02;;;;;;;14.13;11.32;;;;;;;9.27;77.35;101380.25;5042564;28;20384;-80
2021/03/27 00:43:36;;;;;;;13.27;11.38;;;;;;;9.04;78.05;101359.28;5040758;28;20469;-79
2021/03/27 00:46:05;;;;;;;14.65;11.85;;;;;;;9.20;77.87;101382.66;5040234;28;20032;-79
2021/03/27 00:48:47;;;;;;;14.15;12.65;;;;;;;9.13;78.28;101374.81;5040630;28;20507;-78
2021/03/27 00:51:19;;;;;;;16.25;11.57;;;;;;;9.17;77.95;101373.03;5040627;28;20041;-79
2021/03/27 00:53:52;;;;;;;12.38;10.30;;;;;;;9.09;78.42;101373.00;5040297;28;20072;-79
2021/03/27 00:56:38;;;;;;;15.50;10.90;;;;;;;9.05;78.61;101377.56;5040248;28;20030;-79
2021/03/27 00:59:06;;;;;;;14.13;10.85;;;;;;;9.06;78.38;101374.50;5040152;28;20029;-79
2021/03/27 01:01:38;;;;;;;15.55;10.90;;;;;;;9.07;78.10;101375.31;5039484;28;20037;-79
2021/03/27 01:04:08;;;;;;;13.30;11.43;;;;;;;9.09;78.04;101373.81;5040100;28;20026;-79
2021/03/27 01:07:04;;;;;;;13.27;9.65;;;;;;;9.03;78.38;101379.88;5039803;28;20029;-79
2021/03/27 01:09:40;;;;;;;13.00;11.48;;;;;;;9.03;77.95;101365.97;5039237;28;20045;-79
2021/03/27 01:12:31;;;;;;;13.20;11.60;;;;;;;9.03;78.30;101379.88;5040915;28;20025;-79
2021/03/27 01:15:11;;;;;;;13.45;11.32;;;;;;;9.06;78.27;101373.69;5035029;28;20037;-79
2021/03/27 01:17:42;;;;;;;13.82;11.70;;;;;;;9.06;77.82;101363.38;5040380;28;20083;-79
2021/03/27 01:20:15;;;;;;;15.90;11.27;;;;;;;9.02;78.29;101367.13;5011750;28;866189;-79
2021/03/27 01:22:42;;;;;;;15.82;11.85;;;;;;;8.99;78.76;101365.00;5063277;28;20035;-79
2021/03/27 01:25:08;;;;;;;14.23;11.60;;;;;;;8.98;79.12;101371.69;5061523;28;20028;-79
2021/03/27 01:28:00;;;;;;;15.43;11.07;;;;;;;8.92;78.85;101363.50;5044067;28;20060;-79
2021/03/27 01:30:28;;;;;;;13.88;10.88;;;;;;;8.97;78.80;101376.41;5060907;28;20032;-80
2021/03/27 01:33:01;;;;;;;14.35;11.55;;;;;;;9.06;78.98;101374.50;5045036;28;20025;-80
2021/03/27 01:35:42;;;;;;;12.82;11.35;;;;;;;9.06;78.91;101368.13;5044167;28;20040;-79
2021/03/27 01:38:20;;;;;;;12.57;10.32;;;;;;;9.07;78.92;101367.78;5060609;28;20606;-79
2021/03/27 01:40:46;;;;;;;12.48;11.23;;;;;;;9.11;78.68;101362.41;5061545;28;20033;-79
2021/03/27 01:43:19;;;;;;;14.48;11.02;;;;;;;8.92;79.00;101341.31;5044162;28;20097;-79
2021/03/27 01:46:08;;;;;;;15.07;11.55;;;;;;;9.02;78.69;101344.91;5043302;28;20063;-78
2021/03/27 01:48:55;;;;;;;14.00;11.20;;;;;;;9.10;78.66;101371.88;5043643;28;20040;-80
2021/03/27 01:51:27;;;;;;;12.98;11.57;;;;;;;9.01;79.25;101376.59;5043311;28;20040;-79
2021/03/27 01:54:02;;;;;;;14.77;12.48;;;;;;;8.86;79.23;101359.25;5044509;28;20159;-79
2021/03/27 01:56:36;;;;;;;13.00;11.77;;;;;;;8.88;79.68;101368.06;5043968;28;20102;-79
2021/03/27 01:59:09;;;;;;;16.02;12.50;;;;;;;8.86;79.68;101364.81;5044061;28;20033;-79
2021/03/27 02:01:50;;;;;;;13.25;11.82;;;;;;;8.88;79.48;101368.06;5044436;28;20040;-79
2021/03/27 02:04:23;;;;;;;15.15;11.75;;;;;;;8.95;79.56;101366.75;5044074;28;20021;-79
2021/03/27 02:07:02;;;;;;;16.30;12.52;;;;;;;8.96;78.92;101357.31;5060296;28;20031;-79
2021/03/27 02:10:15;;;;;;;14.80;11.45;;;;;;;8.95;78.99;101362.06;5060828;28;20029;-79
2021/03/27 02:13:07;;;;;;;14.05;11.82;;;;;;;8.86;80.14;101362.03;5007065;28;20034;-80
2021/03/27 02:15:51;;;;;;;18.73;13.10;;;;;;;8.87;80.09;101366.44;5063963;28;20064;-80
2021/03/27 02:18:25;;;;;;;13.13;11.48;;;;;;;8.86;80.14;101352.88;5043598;28;20029;-79
2021/03/27 02:21:01;;;;;;;15.93;11.98;;;;;;;8.90;80.57;101356.66;5042458;28;20053;-79
2021/03/27 02:23:51;;;;;;;15.25;11.98;;;;;;;8.86;80.80;101359.25;5043579;28;20025;-79
2021/03/27 02:26:29;;;;;;;14.18;12.45;;;;;;;8.88;81.15;101356.97;5043509;28;20067;-80
2021/03/27 02:29:06;;;;;;;15.23;12.43;;;;;;;8.92;80.99;101357.97;5043451;28;20403;-79
2021/03/27 02:31:33;;;;;;;17.73;12.68;;;;;;;8.91;81.10;101359.09;5043242;28;20036;-79
2021/03/27 02:34:23;;;;;;;13.75;12.43;;;;;;;8.91;80.57;101353.56;5043299;28;20367;-79
2021/03/27 02:37:07;;;;;;;13.50;12.10;;;;;;;8.98;80.50;101352.25;5042728;28;20110;-79
2021/03/27 02:39:45;;;;;;;15.65;11.82;;;;;;;8.99;80.58;101351.91;5042914;28;20029;-79
2021/03/27 02:42:22;;;;;;;14.02;12.52;;;;;;;9.08;80.23;101357.50;5043166;28;20175;-79
2021/03/27 02:44:54;;;;;;;13.57;12.18;;;;;;;9.20;79.57;101357.66;5042879;28;20032;-79
2021/03/27 02:47:26;;;;;;;12.60;11.50;;;;;;;9.10;79.67;101361.56;5043190;28;20029;-80
2021/03/27 02:50:16;;;;;;;12.57;11.25;;;;;;;9.07;80.15;101356.69;5041977;28;20044;-80
2021/03/27 02:53:04;;;;;;;15.85;12.68;;;;;;;9.14;80.40;101370.91;5041295;28;20483;-79
2021/03/27 02:55:43;;;;;;;14.80;11.32;;;;;;;9.11;80.15;101359.63;5042121;28;20025;-79
2021/03/27 02:58:10;;;;;;;15.65;12.40;;;;;;;9.10;80.48;101363.53;5042660;28;20472;-80
2021/03/27 03:01:14;;;;;;;13.32;11.35;;;;;;;9.11;80.54;101362.41;5041231;28;20029;-79
2021/03/27 03:04:09;;;;;;;12.35;10.98;;;;;;;9.04;80.95;101364.84;5042091;28;20029;-79
2021/03/27 03:07:31;;;;;;;17.65;11.65;;;;;;;9.03;81.02;101371.53;5059321;28;20429;-79
2021/03/27 03:10:18;;;;;;;13.73;12.23;;;;;;;9.13;80.60;101368.44;4981556;28;20121;-79
2021/03/27 03:13:20;;;;;;;13.38;11.55;;;;;;;8.90;81.16;101332.50;5059199;28;20029;-79
2021/03/27 03:15:57;;;;;;;13.27;11.27;;;;;;;9.02;81.25;101353.25;5040826;28;20032;-79
2021/03/27 03:18:58;;;;;;;13.20;11.80;;;;;;;9.12;80.99;101364.03;5040892;28;20021;-79
2021/03/27 03:21:31;;;;;;;12.73;11.43;;;;;;;9.10;81.22;101366.31;5019183;28;20045;-79
2021/03/27 03:23:59;;;;;;;15.00;13.50;;;;;;;9.11;81.24;101363.22;5059478;28;20100;-79
2021/03/27 03:26:43;;;;;;;18.35;13.57;;;;;;;9.06;81.38;101362.56;5040222;28;20119;-80
2021/03/27 03:29:22;;;;;;;17.92;16.08;;;;;;;9.03;80.86;101374.31;5041354;28;20028;-79
2021/03/27 03:32:08;;;;;;;19.27;17.20;;;;;;;9.03;81.21;101368.75;5040576;28;20036;-79
2021/03/27 03:35:12;;;;;;;16.52;14.57;;;;;;;9.02;81.44;101356.03;5040727;28;20473;-79
2021/03/27 03:37:59;;;;;;;22.20;15.95;;;;;;;9.05;81.13;101361.72;4979912;28;20436;-79
2021/03/27 03:40:45;;;;;;;22.70;20.52;;;;;;;8.95;81.72;101364.84;4980907;28;20117;-79
2021/03/27 03:43:29;;;;;;;29.10;26.02;;;;;;;8.89;81.34;101363.31;5025715;28;20124;-79
2021/03/27 03:46:01;;;;;;;39.75;35.85;;;;;;;8.85;81.49;101357.63;5041063;28;20017;-79
2021/03/27 03:49:11;;;;;;;31.75;28.73;;;;;;;8.82;81.38;101360.22;5057682;28;20044;-79
2021/03/27 03:51:54;;;;;;;21.33;19.00;;;;;;;8.73;81.85;101351.84;5040842;28;20087;-79
2021/03/27 03:54:23;;;;;;;20.70;18.55;;;;;;;8.78;82.37;101362.00;5040420;28;20032;-79
2021/03/27 03:57:24;;;;;;;26.27;23.58;;;;;;;8.71;82.02;101356.09;5040493;28;20025;-79
2021/03/27 03:59:55;;;;;;;84.22;75.88;;;;;;;8.78;81.78;101362.00;5040924;28;20471;-78
2021/03/27 04:02:50;;;;;;;40.83;36.28;;;;;;;8.88;80.62;101356.97;5040294;28;20371;-79
2021/03/27 04:05:23;;;;;;;29.23;26.27;;;;;;;8.90;80.65;101354.69;5038118;28;20509;-79
2021/03/27 04:08:05;;;;;;;37.03;32.92;;;;;;;8.70;80.67;101360.84;5056853;28;20063;-80
2021/03/27 04:10:33;;;;;;;34.08;29.55;;;;;;;8.65;82.05;101352.66;5039985;28;20086;-79
2021/03/27 04:13:05;;;;;;;26.02;20.65;;;;;;;8.43;81.46;101305.59;5039777;28;20502;-79
2021/03/27 04:15:45;;;;;;;17.63;15.75;;;;;;;8.68;80.98;101348.41;5039910;28;20040;-79
2021/03/27 04:18:24;;;;;;;16.85;12.65;;;;;;;8.65;81.92;101344.34;5040523;28;20025;-79
2021/03/27 04:21:09;;;;;;;11.88;9.90;;;;;;;8.65;82.21;101347.94;5052889;28;20056;-79
2021/03/27 04:23:53;;;;;;;19.25;12.20;;;;;;;8.65;82.26;101349.88;5036690;28;20468;-79
2021/03/27 04:26:37;;;;;;;13.50;11.20;;;;;;;8.45;82.02;101318.00;5035756;28;20067;-79
2021/03/27 04:29:02;;;;;;;14.88;13.13;;;;;;;8.62;82.31;101356.88;5035847;28;20029;-79
2021/03/27 04:31:35;;;;;;;14.27;12.70;;;;;;;8.71;83.16;101354.16;5035704;28;20124;-79
2021/03/27 04:34:20;;;;;;;15.70;12.45;;;;;;;8.79;83.64;101355.28;5035555;28;20034;-79
2021/03/27 04:36:58;;;;;;;15.95;13.90;;;;;;;8.88;83.87;101351.41;5035544;28;20026;-79
2021/03/27 04:39:43;;;;;;;20.60;10.38;;;;;;;8.83;83.80;101347.97;5036018;28;20025;-79
2021/03/27 04:42:41;;;;;;;13.95;10.52;;;;;;;8.89;83.53;101363.31;5046593;28;20037;-79
2021/03/27 04:45:29;;;;;;;12.20;9.68;;;;;;;8.88;83.03;101359.72;5029796;28;20038;-80
2021/03/27 04:48:06;;;;;;;16.05;9.52;;;;;;;8.98;82.43;101358.63;5035335;28;20033;-79
2021/03/27 04:51:07;;;;;;;15.63;10.50;;;;;;;8.92;81.88;101371.84;5036246;28;20056;-79
2021/03/27 04:53:46;;;;;;;16.33;8.00;;;;;;;9.04;81.38;101371.19;5022765;28;20049;-79
2021/03/27 04:56:24;;;;;;;13.75;8.13;;;;;;;9.15;81.31;101372.53;5035039;28;20045;-79
2021/03/27 04:59:27;;;;;;;12.27;8.10;;;;;;;9.13;81.45;101379.56;5036094;28;20033;-79
2021/03/27 05:02:08;;;;;;;12.30;7.82;;;;;;;9.10;81.17;101381.00;5035742;28;20061;-79
2021/03/27 05:05:11;;;;;;;10.60;6.65;;;;;;;9.20;80.87;101379.88;5035966;28;20057;-79
2021/03/27 05:07:50;;;;;;;10.45;7.35;;;;;;;9.35;81.10;101376.63;5034749;28;20029;-79
2021/03/27 05:10:30;;;;;;;7.15;6.50;;;;;;;9.54;80.80;101368.00;5035395;28;20032;-79
2021/03/27 05:13:17;;;;;;;8.18;6.20;;;;;;;9.67;80.14;101372.56;5035189;28;20034;-79
2021/03/27 05:16:10;;;;;;;7.53;6.72;;;;;;;9.96;79.63;101380.22;5036120;28;20401;-79
2021/03/27 05:18:43;;;;;;;6.57;6.00;;;;;;;10.08;78.02;101387.88;5034784;28;20101;-79
2021/03/27 05:21:17;;;;;;;;;;;;;;;10.11;77.48;101384.44;5035063;28;20050;-79
2021/03/27 05:24:02;;;;;;;7.22;6.15;;;;;;;10.23;77.24;101384.63;5035875;28;19970;-79
2021/03/27 05:26:43;;;;;;;7.18;5.82;;;;;;;10.72;75.54;101378.69;5038441;28;20025;-79
2021/03/27 05:29:34;;;;;;;8.13;5.95;;;;;;;10.76;74.98;101388.03;5038259;28;20033;-79
2021/03/27 05:32:33;;;;;;;8.30;6.00;;;;;;;10.63;75.78;101359.25;5038559;28;20032;-79
2021/03/27 05:35:14;;;;;;;8.50;6.07;;;;;;;11.04;75.22;101385.56;5039266;28;20025;-79
2021/03/27 05:37:49;;;;;;;9.10;6.07;;;;;;;11.52;72.48;101384.25;5023591;28;20032;-79
2021/03/27 05:40:20;;;;;;;10.38;6.70;;;;;;;11.97;71.58;101391.91;5038955;28;20036;-79
2021/03/27 05:43:07;;;;;;;7.07;6.00;;;;;;;12.22;69.92;101395.59;5038910;28;20448;-79
2021/03/27 05:45:39;;;;;;;6.20;5.60;;;;;;;12.36;68.00;101372.94;5038181;28;20033;-79
2021/03/27 05:48:20;;;;;;;6.20;5.60;;;;;;;13.18;66.13;101398.81;5039062;28;20056;-79
2021/03/27 05:50:58;;;;;;;7.35;5.90;;;;;;;13.88;63.93;101399.38;5038745;28;20029;-79
2021/03/27 05:53:49;;;;;;;6.03;5.43;;;;;;;13.96;61.49;101402.38;5038979;28;20063;-79
2021/03/27 05:56:49;;;;;;;6.25;5.68;;;;;;;13.25;64.64;101396.28;5038631;28;20091;-79
2021/03/27 05:59:26;;;;;;;6.20;5.60;;;;;;;12.95;65.32;101384.53;5039271;28;20030;-79
2021/03/27 06:02:07;;;;;;;6.20;5.32;;;;;;;12.74;65.34;101400.59;5038855;28;20036;-78
2021/03/27 06:04:58;;;;;;;6.32;5.72;;;;;;;12.57;66.32;101408.03;5039099;28;20087;-79
2021/03/27 06:07:48;;;;;;;5.93;5.32;;;;;;;12.81;66.58;101412.00;5039674;28;20124;-79
2021/03/27 06:10:26;;;;;;;7.60;5.05;;;;;;;13.86;62.90;101412.09;5038706;28;20029;-79
2021/03/27 06:13:15;;;;;;;5.60;4.75;;;;;;;13.83;61.75;101379.22;5039026;28;20029;-79
2021/03/27 06:16:15;;;;;;;7.35;5.00;;;;;;;14.33;60.89;101414.22;5039370;28;20140;-79
2021/03/27 06:19:10;;;;;;;9.43;5.45;;;;;;;15.07;58.43;101409.72;5038593;28;20040;-78
2021/03/27 06:22:01;;;;;;;5.22;4.75;;;;;;;15.07;58.49;101415.31;5038049;28;20053;-78
2021/03/27 06:24:42;;;;;;;5.50;4.57;;;;;;;14.67;59.78;101418.34;5038009;28;20033;-78
2021/03/27 06:27:33;;;;;;;7.72;4.75;;;;;;;14.39;59.77;101423.97;5037667;28;20029;-79
2021/03/27 06:30:29;;;;;;;6.95;4.53;;;;;;;14.89;60.28;101414.09;5038221;28;20032;-78
2021/03/27 06:33:10;;;;;;;7.22;5.25;;;;;;;15.61;55.66;101411.78;5038476;28;20040;-78
2021/03/27 06:35:56;;;;;;;6.75;5.00;;;;;;;16.61;54.75;101415.75;5036093;28;20029;-78
2021/03/27 06:38:47;;;;;;;6.72;4.40;;;;;;;17.54;51.90;101415.28;5037801;28;20030;-78
2021/03/27 06:41:12;;;;;;;5.43;4.93;;;;;;;18.16;49.53;101398.78;5038236;28;20030;-78
2021/03/27 06:43:43;;;;;;;4.57;4.13;;;;;;;18.90;46.84;101422.47;5038066;28;20123;-79
2021/03/27 06:46:18;;;;;;;5.95;5.05;;;;;;;18.23;47.92;101424.22;5035785;28;20021;-78
2021/03/27 06:48:59;;;;;;;7.30;5.13;;;;;;;18.03;49.08;101425.59;5037524;28;20044;-78
2021/03/27 06:51:50;;;;;;;7.00;4.97;;;;;;;17.22;49.78;101415.63;5037974;28;20029;-78
2021/03/27 06:55:00;;;;;;;5.75;3.92;;;;;;;16.42;51.87;101427.88;5037268;28;20116;-78
2021/03/27 06:57:44;;;;;;;4.70;4.30;;;;;;;15.78;54.97;101432.19;5037989;28;20116;-78
2021/03/27 07:00:34;;;;;;;4.70;4.30;;;;;;;15.55;55.19;101434.84;5038821;28;20029;-78
2021/03/27 07:03:41;;;;;;;7.78;4.70;;;;;;;15.97;55.30;101427.38;5040134;28;20538;-78
2021/03/27 07:06:27;;;;;;;4.97;4.00;;;;;;;16.54;54.02;101433.31;5038273;28;20040;-79
2021/03/27 07:09:01;;;;;;;6.82;5.45;;;;;;;17.39;51.04;101424.69;5038762;28;20476;-78
2021/03/27 07:12:08;;;;;;;8.75;5.53;;;;;;;17.00;51.43;101430.53;5036573;28;20033;-78
2021/03/27 07:15:09;;;;;;;5.38;4.85;;;;;;;16.10;53.67;101428.06;5040063;28;20037;-78
2021/03/27 07:18:22;;;;;;;5.40;4.70;;;;;;;15.39;56.07;101437.69;5045321;28;20029;-79
2021/03/27 07:21:16;;;;;;;5.85;4.20;;;;;;;14.18;58.88;101417.78;5023879;28;20057;-78
2021/03/27 07:24:09;;;;;;;8.13;4.83;;;;;;;14.23;59.67;101443.53;5037334;28;20029;-79
2021/03/27 07:27:12;;;;;;;6.45;5.53;;;;;;;14.29;60.50;101446.88;5038023;28;20026;-78
2021/03/27 07:30:05;;;;;;;7.25;5.78;;;;;;;15.23;57.29;101445.31;5038133;28;20093;-78
2021/03/27 07:32:43;;;;;;;7.90;5.68;;;;;;;15.41;56.14;101413.72;5037531;28;20029;-78
2021/03/27 07:35:18;;;;;;;7.18;6.20;;;;;;;16.33;54.03;101446.94;5036991;28;20131;-78
2021/03/27 07:38:18;;;;;;;8.90;5.78;;;;;;;16.66;52.88;101449.97;5037222;28;20053;-78
2021/03/27 07:41:24;;;;;;;9.02;5.43;;;;;;;17.00;51.22;101447.41;5036450;28;20091;-78
2021/03/27 07:44:17;;;;;;;7.47;5.53;;;;;;;17.84;48.34;101451.06;5036790;28;20108;-78
2021/03/27 07:47:10;;;;;;;7.13;4.57;;;;;;;18.03;47.71;101439.66;5036198;28;20100;-78
2021/03/27 07:49:36;;;;;;;9.25;5.93;;;;;;;17.98;47.66;101440.00;5038761;28;20391;-78
2021/03/27 07:52:07;;;;;;;7.90;5.93;;;;;;;18.30;47.71;101426.28;5037465;28;20033;-78
2021/03/27 07:54:50;;;;;;;9.00;6.38;;;;;;;18.44;46.22;101451.00;5037496;28;20036;-78
2021/03/27 07:57:39;;;;;;;8.87;6.27;;;;;;;18.25;47.29;101458.44;5037781;28;20393;-78
2021/03/27 08:00:16;;;;;;;5.63;4.30;;;;;;;18.21;45.81;101432.22;5037889;28;20272;-78
2021/03/27 08:03:07;;;;;;;4.95;3.90;;;;;;;18.71;43.68;101449.72;5038133;28;20026;-78
2021/03/27 08:05:48;;;;;;;4.35;2.88;;;;;;;18.58;43.57;101451.94;5035235;28;20345;-80
2021/03/27 08:08:28;;;;;;;23.55;17.02;;;;;;;17.48;46.72;101453.38;5034285;28;20048;-78
2021/03/27 08:11:18;;;;;;;8.73;6.13;;;;;;;17.50;46.47;101459.44;5038456;28;20033;-78
2021/03/27 08:14:11;;;;;;;5.28;3.70;;;;;;;17.13;47.16;101457.25;5037055;28;20112;-78
2021/03/27 08:16:48;;;;;;;4.40;3.85;;;;;;;17.24;47.03;101466.66;5038068;28;20025;-78
2021/03/27 08:19:46;;;;;;;5.47;3.28;;;;;;;17.17;47.49;101458.13;5038865;28;20415;-79
2021/03/27 08:22:43;;;;;;;3.35;2.25;;;;;;;17.59;44.82;101464.78;5034553;28;20081;-79
2021/03/27 08:25:56;;;;;;;2.50;2.20;;;;;;;17.53;44.48;101461.50;5037122;28;20029;-79
2021/03/27 08:28:30;;;;;;;2.80;2.60;;;;;;;17.13;45.86;101446.00;5039507;28;20036;-79
2021/03/27 08:31:14;;;;;;;6.25;3.00;;;;;;;17.64;46.08;101459.66;5038452;28;20038;-79
2021/03/27 08:33:50;;;;;;;5.45;3.25;;;;;;;17.53;45.91;101458.69;5038255;28;20033;-79
2021/03/27 08:36:34;;;;;;;3.78;3.00;;;;;;;18.02;43.80;101458.56;5039556;28;20021;-79
2021/03/27 08:39:21;;;;;;;3.13;2.35;;;;;;;18.47;42.33;101467.94;5039833;28;20034;-79
2021/03/27 08:41:47;;;;;;;2.53;2.33;;;;;;;18.42;41.75;101459.84;5039009;28;20021;-79
2021/03/27 08:44:40;;;;;;;3.03;2.25;;;;;;;18.22;43.00;101459.22;5039270;28;20033;-79
2021/03/27 08:47:33;;;;;;;3.08;2.45;;;;;;;18.43;42.13;101466.28;5039317;28;20029;-79
2021/03/27 08:50:36;;;;;;;4.25;2.60;;;;;;;18.78;41.56;101477.97;5037711;28;20502;-79
2021/03/27 08:53:26;;;;;;;3.60;2.88;;;;;;;18.70;42.30;101470.66;5034535;28;20088;-79
2021/03/27 08:56:13;;;;;;;3.85;3.53;;;;;;;18.35;42.76;101473.03;5034672;28;20083;-79
2021/03/27 08:59:00;;;;;;;3.75;2.55;;;;;;;18.76;42.02;101466.28;5033991;28;20033;-80
2021/03/27 09:02:14;;;;;;;4.47;2.72;;;;;;;18.41;43.13;101471.50;5036936;28;20030;-79
2021/03/27 09:05:13;;;;;;;2.78;2.58;;;;;;;18.19;43.01;101467.63;5043346;28;20414;-78
2021/03/27 09:08:07;;;;;;;3.90;2.05;;;;;;;18.20;42.58;101472.88;5041084;28;20407;-78
2021/03/27 09:11:14;;;;;;;1.92;1.80;;;;;;;18.36;41.91;101474.66;5042661;28;20037;-79
2021/03/27 09:13:48;;;;;;;2.58;1.67;;;;;;;18.43;41.60;101466.28;5039514;28;20079;-79
2021/03/27 09:17:04;;;;;;;2.50;1.80;;;;;;;18.65;41.01;101468.16;5035799;28;20030;-79
2021/03/27 09:19:48;;;;;;;4.68;2.28;;;;;;;18.60;41.18;101468.50;5026919;28;20100;-81
2021/03/27 09:22:49;;;;;;;3.20;1.58;;;;;;;19.17;39.77;101471.84;5035195;28;20487;-79
2021/03/27 09:25:30;;;;;;;5.07;1.58;;;;;;;19.83;38.58;101471.94;5036057;28;20029;-81
2021/03/27 09:28:17;;;;;;;3.35;1.95;;;;;;;19.55;38.99;101481.03;5035677;28;20036;-81
2021/03/27 09:31:01;;;;;;;2.65;1.90;;;;;;;19.55;39.42;101484.66;5035717;28;20530;-79
2021/03/27 09:33:39;;;;;;;;;;;;;;;19.67;39.26;101489.19;5035594;28;20033;-79
2021/03/27 09:36:26;;;;;;;3.05;1.50;;;;;;;19.83;38.57;101469.94;5035428;28;19920;-79
2021/03/27 09:39:19;;;;;;;2.85;1.67;;;;;;;19.70;39.01;101488.38;5035371;28;20032;-80
2021/03/27 09:41:53;;;;;;;3.92;1.70;;;;;;;19.33;40.05;101482.84;5035287;28;20461;-80
2021/03/27 09:44:44;;;;;;;1.50;1.40;;;;;;;19.63;39.68;101482.72;5037189;28;20368;-79
2021/03/27 09:47:45;;;;;;;3.60;1.83;;;;;;;19.48;40.20;101480.97;5041045;28;20048;-79
2021/03/27 09:50:28;;;;;;;4.88;1.50;;;;;;;19.86;39.92;101480.41;5047515;28;20029;-78
2021/03/27 09:53:04;;;;;;;1.92;1.70;;;;;;;19.70;40.27;101459.34;5045502;28;20037;-79
2021/03/27 09:55:55;;;;;;;1.70;1.48;;;;;;;19.38;40.99;101480.47;5039922;28;20120;-79
2021/03/27 09:58:44;;;;;;;2.90;1.70;;;;;;;19.46;41.90;101477.72;5041444;28;20040;-79
2021/03/27 10:01:32;;;;;;;4.95;2.20;;;;;;;19.07;43.45;101473.41;5041710;28;20066;-79
2021/03/27 10:04:20;;;;;;;8.05;2.60;;;;;;;19.26;43.14;101469.50;5042536;28;20088;-80
2021/03/27 10:07:07;;;;;;;3.95;2.10;;;;;;;19.53;42.74;101464.47;5039384;28;20047;-79
2021/03/27 10:10:07;;;;;;;2.10;1.90;;;;;;;18.28;45.73;101471.78;5041969;28;20038;-79
2021/03/27 10:12:43;;;;;;;6.50;2.50;;;;;;;18.41;45.59;101465.88;5041194;28;20029;-79
2021/03/27 10:15:18;;;;;;;2.30;2.10;;;;;;;18.28;46.50;101463.31;5042519;28;20172;-79
2021/03/27 10:17:53;;;;;;;3.35;2.67;;;;;;;18.66;45.97;101458.50;5041202;28;20029;-79
2021/03/27 10:20:41;;;;;;;3.75;2.25;;;;;;;17.98;46.73;101425.94;5045600;28;20069;-79
2021/03/27 10:23:36;;;;;;;2.47;2.20;;;;;;;18.23;47.08;101452.38;5047610;28;20136;-79
2021/03/27 10:26:19;;;;;;;3.85;2.00;;;;;;;18.79;46.17;101461.84;5045742;28;20041;-79
2021/03/27 10:28:55;;;;;;;;;;;;;;;18.57;46.93;101463.63;5045425;28;20025;-79
2021/03/27 10:31:28;;;;;;;2.78;1.80;;;;;;;18.28;47.53;101460.50;5045018;28;19909;-79
2021/03/27 10:34:32;;;;;;;2.97;1.92;;;;;;;18.02;47.76;101454.94;5045279;28;20036;-79
2021/03/27 10:37:10;;;;;;;;;;;;;;;18.36;46.33;101463.38;5045896;28;20096;-79
2021/03/27 10:39:42;;;;;;;5.28;2.50;;;;;;;18.41;45.97;101468.69;5044503;28;20367;-78
2021/03/27 10:42:29;;;;;;;3.17;2.22;;;;;;;18.38;46.66;101461.00;5045402;28;20083;-79
2021/03/27 10:45:22;;;;;;;2.35;2.15;;;;;;;18.51;46.65;101434.16;5045106;28;20021;-79
2021/03/27 10:48:03;;;;;;;2.83;2.55;;;;;;;18.17;48.40;101455.94;5046347;28;20124;-79
2021/03/27 10:50:35;;;;;;;2.63;2.42;;;;;;;18.47;47.66;101456.66;5045357;28;20115;-79
2021/03/27 10:53:36;;;;;;;3.17;2.58;;;;;;;18.74;46.80;101463.00;5044761;28;20033;-79
2021/03/27 10:56:23;;;;;;;3.92;2.65;;;;;;;18.90;46.70;101468.41;5032396;28;20044;-79
2021/03/27 10:59:13;;;;;;;3.20;2.22;;;;;;;18.39;47.22;101468.25;5045387;28;20061;-78
2021/03/27 11:02:05;;;;;;;2.20;2.00;;;;;;;18.03;47.87;101462.19;5044760;28;20045;-79
2021/03/27 11:05:06;;;;;;;3.00;2.15;;;;;;;18.47;47.27;101462.31;5043688;28;20122;-79
2021/03/27 11:08:06;;;;;;;2.55;2.30;;;;;;;17.94;48.96;101456.03;5024349;28;20124;-79
2021/03/27 11:10:46;;;;;;;5.55;2.20;;;;;;;17.77;48.81;101448.97;5044594;28;20043;-79
2021/03/27 11:13:53;;;;;;;5.22;2.13;;;;;;;17.80;49.47;101446.22;5062446;28;20078;-81
2021/03/27 11:16:27;;;;;;;1.90;1.77;;;;;;;18.11;49.08;101444.22;5017163;28;20502;-80
2021/03/27 11:19:17;;;;;;;4.65;2.72;;;;;;;18.76;46.30;101452.19;5045781;28;20058;-78
2021/03/27 11:22:01;;;;;;;2.40;1.80;;;;;;;19.05;45.34;101455.25;5041822;28;20068;-80
2021/03/27 11:24:40;;;;;;;2.10;1.92;;;;;;;18.67;45.90;101443.19;5042786;28;20030;-80
2021/03/27 11:27:37;;;;;;;2.53;2.00;;;;;;;17.89;47.57;101447.91;5043682;28;20048;-78
2021/03/27 11:30:14;;;;;;;4.32;3.15;;;;;;;18.68;46.48;101455.31;5043176;28;20124;-79
2021/03/27 11:32:47;;;;;;;6.10;2.47;;;;;;;18.91;45.50;101447.47;5048178;28;20040;-79
2021/03/27 11:35:28;;;;;;;2.30;2.10;;;;;;;19.04;45.28;101451.63;5043100;28;20071;-79
2021/03/27 11:38:25;;;;;;;2.50;1.98;;;;;;;18.98;44.06;101443.91;5042543;28;20025;-79
2021/03/27 11:44:20;;;;;;;2.88;2.22;;;;;;;19.05;42.68;101422.19;5322478;22;20045;-81
2021/03/27 11:47:28;;;;;;;2.78;1.90;;;;;;;19.06;43.73;101397.63;5041003;28;20101;-80
2021/03/27 11:50:11;;;;;;;2.78;1.90;;;;;;;18.46;45.60;101404.34;5039702;28;20045;-82
2021/03/27 11:52:47;;;;;;;2.88;2.17;;;;;;;18.35;45.97;101402.59;5041373;28;20033;-82
2021/03/27 11:55:38;;;;;;;2.70;1.85;;;;;;;18.35;45.74;101411.06;5042044;28;20017;-81
2021/03/27 11:58:21;;;;;;;3.47;2.22;;;;;;;18.41;46.00;101395.41;5041346;28;20014;-81
2021/03/27 12:01:10;;;;;;;1.52;1.42;;;;;;;18.49;45.80;101392.28;5040963;28;20049;-80
2021/03/27 12:04:11;;;;;;;6.25;3.10;;;;;;;18.69;45.39;101431.53;5041049;28;20056;-81
2021/03/27 12:09:45;;;;;;;6.60;3.78;;;;;;;18.58;45.27;101366.59;5121215;22;20052;-81
2021/03/27 12:12:34;;;;;;;3.25;2.22;;;;;;;18.06;46.65;101430.47;5041625;28;20096;-81
2021/03/27 12:15:18;;;;;;;2.55;1.70;;;;;;;18.54;45.79;101433.41;5024626;28;20025;-81
2021/03/27 12:18:02;;;;;;;10.00;7.50;;;;;;;18.98;43.86;101436.25;5040681;28;20087;-80
2021/03/27 12:20:43;;;;;;;5.03;2.28;;;;;;;18.33;45.27;101377.66;5041223;28;20045;-81
2021/03/27 12:26:14;;;;;;;2.15;1.95;;;;;;;19.06;44.20;101437.09;5135629;22;20058;-82
2021/03/27 12:29:09;;;;;;;3.75;1.77;;;;;;;18.19;45.74;101431.81;5058670;28;20018;-82
2021/03/27 12:31:34;;;;;;;5.20;1.58;;;;;;;17.95;46.59;101429.50;5004650;28;20053;-82
2021/03/27 12:34:12;;;;;;;2.20;2.00;;;;;;;18.32;45.63;101427.56;5044911;28;20047;-82
2021/03/27 12:36:51;;;;;;;2.33;1.50;;;;;;;18.66;45.30;101424.66;5107633;23;20068;-82
2021/03/27 12:42:23;;;;;;;2.65;1.98;;;;;;;18.56;44.76;101419.72;5815562;22;20041;-81
2021/03/27 12:53:23;;;;;;;3.70;1.67;;;;;;;18.69;44.87;101423.91;5041659;28;20030;-80
2021/03/27 12:56:12;;;;;;;4.68;1.88;;;;;;;18.91;43.00;101418.44;5035948;22;20047;-80
2021/03/27 12:58:44;;;;;;;2.63;1.80;;;;;;;19.11;42.89;101417.00;5006113;28;20133;-81
2021/03/27 13:01:29;;;;;;;1.57;1.47;;;;;;;19.28;42.82;101413.53;5005770;28;20019;-80
2021/03/27 13:06:36;;;;;;;2.88;1.33;;;;;;;19.38;41.70;101398.63;5036428;28;20044;-80